FACT/CPT METAR and TAF weather

Enter ICAO airport designator
Station Type Date Time Source
FACT METAR 2018/04/21 21:00 UTC NOAA

FACT 212100Z 36005KT CAVOK 13/12 Q1017 NOSIG


Station Type Date Time Source
FACT Decoded METAR 2018/04/21 21:00 UTC NOAA

Cape Town, Cape Town International Airport, South Africa (FACT) 33-59S 018-36E 0M
Apr 21, 2018 - 05:00 PM EDT / 2018.04.21 2100 UTC
Wind: from the N (360 degrees) at 6 MPH (5 KT):0
Visibility: greater than 7 mile(s):0
Temperature: 55 F (13 C)
Dew Point: 53 F (12 C)
Relative Humidity: 93%
Pressure (altimeter): 30.03 in. Hg (1017 hPa)
ob: FACT 212100Z 36005KT CAVOK 13/12 Q1017 NOSIG
cycle: 21

Station Type Date Time Source
FACT TAF 2018/04/21 18:16 UTC NOAA

TAF FACT 211600Z 2118/2224 31010KT CAVOK
FM211900 VRB03KT 9999 FEW015
FM220700 34007KT 9999 FEW025 TX24/2212Z TN09/2205Z


Example: see airport list